Aviation Digital Data Service (ADDS)

Output produced by METARs form (1217 UTC 23 March 2019)
found at http://www.aviationweather.gov/metar/data/
 
LFRN 231200Z AUTO 10006KT 070V140 9000 3600 NSC 15/09 Q1029 NOSIG
TAF LFRN 231100Z 2312/2412 VRB05KT CAVOK 
     BECMG 2322/2324 VRB05KT 3000 BR 
     TEMPO 2401/2408 0300 FG VV/// 
     BECMG 2404/2406 BKN003 
     BECMG 2408/2410 9999 NSW BKN008 
     BECMG 2410/2412 01010KT BKN015